sensor_id;sensor_type;location;lat;lon;timestamp;pressure;altitude;pressure_sealevel;temperature;humidity
80511;BME280;69840;53.040;8.600;2023-08-24T00:07:11;101940.13;;;18.37;82.07
80511;BME280;69840;53.040;8.600;2023-08-24T00:32:31;101929.78;;;18.04;82.99
80511;BME280;69840;53.040;8.600;2023-08-24T00:57:54;101930.78;;;17.74;83.64
80511;BME280;69840;53.040;8.600;2023-08-24T01:48:42;101914.53;;;17.38;85.37
80511;BME280;69840;53.040;8.600;2023-08-24T02:14:02;101906.31;;;17.02;85.83
80511;BME280;69840;53.040;8.600;2023-08-24T02:39:21;101880.50;;;16.94;86.22
80511;BME280;69840;53.040;8.600;2023-08-24T03:04:41;101864.53;;;16.86;87.43
80511;BME280;69840;53.040;8.600;2023-08-24T03:30:00;101851.84;;;17.11;87.43
80511;BME280;69840;53.040;8.600;2023-08-24T03:55:20;101866.38;;;17.46;86.95
80511;BME280;69840;53.040;8.600;2023-08-24T04:20:40;101870.22;;;17.29;87.99
80511;BME280;69840;53.040;8.600;2023-08-24T04:46:00;101855.41;;;17.18;88.62
80511;BME280;69840;53.040;8.600;2023-08-24T05:11:22;101890.78;;;17.05;87.74
80511;BME280;69840;53.040;8.600;2023-08-24T05:36:41;101869.66;;;17.71;88.75
80511;BME280;69840;53.040;8.600;2023-08-24T06:02:02;101853.28;;;18.25;86.65
80511;BME280;69840;53.040;8.600;2023-08-24T06:27:22;101852.97;;;19.41;81.78
80511;BME280;69840;53.040;8.600;2023-08-24T06:52:42;101828.53;;;20.39;77.78
80511;BME280;69840;53.040;8.600;2023-08-24T07:18:02;101799.22;;;21.17;72.18
80511;BME280;69840;53.040;8.600;2023-08-24T07:43:22;101766.72;;;21.51;71.11
80511;BME280;69840;53.040;8.600;2023-08-24T08:08:42;101753.13;;;22.22;67.82
80511;BME280;69840;53.040;8.600;2023-08-24T08:34:03;101761.09;;;22.67;63.95
80511;BME280;69840;53.040;8.600;2023-08-24T08:59:27;101744.28;;;23.39;62.29
80511;BME280;69840;53.040;8.600;2023-08-24T09:24:50;101723.66;;;23.93;57.85
80511;BME280;69840;53.040;8.600;2023-08-24T09:50:09;101662.75;;;24.62;58.73
80511;BME280;69840;53.040;8.600;2023-08-24T10:15:29;101635.25;;;25.29;57.15
80511;BME280;69840;53.040;8.600;2023-08-24T10:40:50;101592.97;;;26.90;48.98
80511;BME280;69840;53.040;8.600;2023-08-24T11:06:20;101560.06;;;29.56;40.91
80511;BME280;69840;53.040;8.600;2023-08-24T11:31:40;101532.44;;;31.03;40.95
80511;BME280;69840;53.040;8.600;2023-08-24T11:57:00;101471.91;;;35.04;34.72
80511;BME280;69840;53.040;8.600;2023-08-24T12:22:19;101443.25;;;31.85;39.15
80511;BME280;69840;53.040;8.600;2023-08-24T12:47:38;101407.72;;;31.85;36.68
80511;BME280;69840;53.040;8.600;2023-08-24T13:12:58;101380.47;;;32.98;37.48
80511;BME280;69840;53.040;8.600;2023-08-24T13:38:17;101364.94;;;33.26;36.19
80511;BME280;69840;53.040;8.600;2023-08-24T14:03:36;101318.13;;;31.77;38.89
80511;BME280;69840;53.040;8.600;2023-08-24T14:28:58;101311.56;;;30.67;37.90
80511;BME280;69840;53.040;8.600;2023-08-24T14:54:17;101303.69;;;29.42;43.06
80511;BME280;69840;53.040;8.600;2023-08-24T15:19:36;101281.38;;;28.28;46.71
80511;BME280;69840;53.040;8.600;2023-08-24T15:44:56;101253.28;;;27.40;52.78
80511;BME280;69840;53.040;8.600;2023-08-24T16:10:15;101202.25;;;26.53;56.53
80511;BME280;69840;53.040;8.600;2023-08-24T16:35:34;101175.69;;;25.69;63.65
80511;BME280;69840;53.040;8.600;2023-08-24T17:00:53;101122.38;;;25.26;64.17
80511;BME280;69840;53.040;8.600;2023-08-24T17:26:12;101090.97;;;25.03;64.30
80511;BME280;69840;53.040;8.600;2023-08-24T17:51:32;101082.38;;;24.68;66.09
80511;BME280;69840;53.040;8.600;2023-08-24T18:16:51;101075.91;;;24.30;67.06
80511;BME280;69840;53.040;8.600;2023-08-24T18:42:10;101052.06;;;24.10;67.24
80511;BME280;69840;53.040;8.600;2023-08-24T19:07:32;101036.75;;;23.83;71.31
80511;BME280;69840;53.040;8.600;2023-08-24T19:32:51;100993.56;;;23.21;71.21
80511;BME280;69840;53.040;8.600;2023-08-24T19:58:10;100976.31;;;22.42;74.78
80511;BME280;69840;53.040;8.600;2023-08-24T20:23:30;100965.09;;;21.98;76.62
80511;BME280;69840;53.040;8.600;2023-08-24T20:48:49;100937.09;;;21.41;77.55
80511;BME280;69840;53.040;8.600;2023-08-24T21:14:09;100947.31;;;20.90;79.05
80511;BME280;69840;53.040;8.600;2023-08-24T21:39:28;100946.31;;;20.55;81.27
80511;BME280;69840;53.040;8.600;2023-08-24T22:04:47;100928.47;;;20.24;82.36
80511;BME280;69840;53.040;8.600;2023-08-24T22:30:06;100928.06;;;20.02;83.87
80511;BME280;69840;53.040;8.600;2023-08-24T22:55:28;100930.41;;;20.17;84.93
80511;BME280;69840;53.040;8.600;2023-08-24T23:20:47;100916.41;;;20.51;85.21
80511;BME280;69840;53.040;8.600;2023-08-24T23:46:06;100917.16;;;20.88;84.93
